Weather at Panimavida Airport

Public forecast

Using degrees Celsius for public forecast. Weather courtesy of forecast.io.

Closest aviation weather report (METAR) to Panimavida Airport

Closest report is General Freire Airport, 48.3 nm (89.5 km) N. Retrieved 2021/04/11 14:00 UTC (49 minutes ago):

SCIC 111400Z 18006KT 5000 HZ FEW005 09/07 Q1016

Closest aviation forecast (TAF) to Panimavida Airport

Closest forecast is Carriel Sur Airport, 100.8 nm (186.8 km) SW. Retrieved 2021/04/11 12:00 UTC (3 hours ago):

TAF SCIE 111010Z 1112/1212 19006KT CAVOK TX20/1118Z TN09/1211Z BECMG 1114/1116 22012KT TEMPO 1118/1123 24015KT BECMG 1201/1203 20008KT TEMPO 1207/1212 16004KT 5000 BR SCT005